Time;durP1;ratioP1;P1;durP2;ratioP2;P2;SDS_P1;SDS_P2;PMS_P1;PMS_P2;Temp;Humidity;BMP_temperature;BMP_pressure;BME280_temperature;BME280_humidity;BME280_pressure;Samples;Min_cycle;Max_cycle;Signal;HPM_P1;HPM_P2
2023/05/24 00:01:06;;;;;;;5.60;5.00;;;24.50;65.90;;;;;;221806;1265;22508;-55
2023/05/24 00:06:11;;;;;;;8.80;6.00;;;24.50;65.30;;;;;;221662;1266;23825;-52
2023/05/24 00:11:15;;;;;;;8.20;5.80;;;24.50;66.10;;;;;;221787;1256;24232;-61
2023/05/24 00:16:19;;;;;;;8.00;6.00;;;24.60;67.80;;;;;;221596;1260;24214;-42
2023/05/24 00:21:23;;;;;;;6.60;5.20;;;24.60;67.80;;;;;;221649;1248;22538;-40
2023/05/24 00:26:27;;;;;;;11.70;5.10;;;24.60;67.60;;;;;;221748;1257;22524;-41
2023/05/24 00:31:32;;;;;;;6.80;5.60;;;24.50;67.60;;;;;;221762;1263;22656;-40
2023/05/24 00:36:38;;;;;;;7.20;5.10;;;24.60;67.60;;;;;;221759;1256;22627;-42
2023/05/24 00:41:42;;;;;;;8.30;5.60;;;24.50;67.40;;;;;;221763;1256;24329;-43
2023/05/24 00:46:46;;;;;;;5.00;4.50;;;24.50;67.40;;;;;;221771;1259;22637;-41
2023/05/24 00:51:52;;;;;;;6.70;5.30;;;24.50;67.60;;;;;;221549;1259;22578;-41
2023/05/24 00:56:56;;;;;;;7.60;5.50;;;24.50;67.20;;;;;;223234;1265;24321;-42
2023/05/24 01:02:01;;;;;;;5.20;4.70;;;24.60;66.80;;;;;;221457;1259;25374;-42
2023/05/24 01:07:30;;;;;;;5.80;5.10;;;24.60;66.70;;;;;;221888;1255;25344;-41
2023/05/24 01:12:55;;;;;;;5.80;4.40;;;24.50;66.60;;;;;;221740;1264;22640;-42
2023/05/24 01:18:17;;;;;;;6.20;5.10;;;24.50;66.40;;;;;;221899;1256;23072;-42
2023/05/24 01:23:52;;;;;;;6.20;4.60;;;24.50;66.40;;;;;;221595;1256;22636;-42
2023/05/24 01:28:57;;;;;;;5.40;4.60;;;24.50;66.50;;;;;;221672;1259;22625;-41
2023/05/24 01:34:01;;;;;;;5.10;4.60;;;24.50;66.40;;;;;;221624;1262;24858;-41
2023/05/24 01:39:05;;;;;;;5.00;4.50;;;24.50;66.40;;;;;;221572;1259;24202;-41
2023/05/24 01:44:21;;;;;;;6.50;5.10;;;24.40;66.40;;;;;;221657;1256;22504;-41
2023/05/24 01:49:30;;;;;;;4.90;4.50;;;24.50;66.40;;;;;;221782;1261;22538;-43
2023/05/24 01:54:39;;;;;;;4.80;4.30;;;24.40;66.80;;;;;;221599;1259;24363;-43
2023/05/24 01:59:44;;;;;;;5.00;4.60;;;24.40;66.30;;;;;;221549;1257;23486;-41
2023/05/24 02:04:49;;;;;;;6.30;4.00;;;24.40;66.40;;;;;;222012;1271;22626;-41
2023/05/24 02:09:53;;;;;;;4.90;4.00;;;24.40;66.10;;;;;;221360;1265;446034;-41
2023/05/24 02:14:58;;;;;;;4.60;4.20;;;24.40;66.30;;;;;;221689;1256;22813;-41
2023/05/24 02:20:03;;;;;;;5.50;4.60;;;24.40;66.30;;;;;;221609;1259;22732;-42
2023/05/24 02:25:08;;;;;;;4.30;3.90;;;24.40;66.20;;;;;;221667;1259;24084;-41
2023/05/24 02:30:13;;;;;;;4.60;4.20;;;24.40;66.20;;;;;;221665;1259;22521;-42
2023/05/24 02:35:17;;;;;;;5.30;4.40;;;24.40;66.10;;;;;;221965;1259;22504;-42
2023/05/24 02:40:21;;;;;;;4.20;3.80;;;24.40;66.70;;;;;;221557;1261;22656;-42
2023/05/24 02:45:25;;;;;;;4.60;4.00;;;24.40;66.30;;;;;;221715;1260;22631;-42
2023/05/24 02:50:29;;;;;;;4.20;3.90;;;24.30;66.10;;;;;;221444;1262;22766;-41
2023/05/24 02:55:33;;;;;;;4.30;3.80;;;24.30;66.10;;;;;;221238;1256;26229;-42
2023/05/24 03:00:37;;;;;;;4.40;4.00;;;24.30;66.20;;;;;;221272;1247;24218;-41
2023/05/24 03:05:42;;;;;;;3.80;3.50;;;24.30;66.50;;;;;;223582;1265;22517;-42
2023/05/24 03:10:47;;;;;;;4.20;3.80;;;24.30;65.80;;;;;;221553;1266;22527;-41
2023/05/24 03:15:52;;;;;;;5.00;4.10;;;24.30;65.70;;;;;;221691;1258;23010;-40
2023/05/24 03:20:56;;;;;;;3.70;3.40;;;24.30;66.00;;;;;;221820;1264;22534;-40
2023/05/24 03:26:00;;;;;;;4.00;3.60;;;24.30;65.90;;;;;;221676;1256;22566;-43
2023/05/24 03:31:06;;;;;;;3.50;3.30;;;24.20;66.20;;;;;;221872;1256;22516;-44
2023/05/24 03:36:10;;;;;;;3.50;3.20;;;24.20;65.80;;;;;;221692;1267;23010;-43
2023/05/24 03:41:15;;;;;;;3.70;3.30;;;24.20;66.20;;;;;;221654;1248;24205;-42
2023/05/24 03:46:19;;;;;;;3.90;3.60;;;24.20;65.90;;;;;;221680;1256;24039;-41
2023/05/24 03:51:28;;;;;;;3.30;3.00;;;24.20;66.10;;;;;;221730;1264;24354;-41
2023/05/24 03:56:32;;;;;;;3.60;3.40;;;24.20;65.90;;;;;;221712;1266;24312;-45
2023/05/24 04:01:36;;;;;;;3.90;3.10;;;24.10;65.80;;;;;;221650;1266;24177;-42
2023/05/24 04:06:40;;;;;;;5.50;3.20;;;24.20;65.80;;;;;;221525;1262;24320;-42
2023/05/24 04:11:45;;;;;;;4.30;3.40;;;24.10;65.80;;;;;;221646;1256;22533;-43
2023/05/24 04:16:50;;;;;;;3.80;3.50;;;24.10;65.70;;;;;;221641;1256;22510;-42
2023/05/24 04:21:56;;;;;;;3.70;3.10;;;24.10;65.70;;;;;;221745;1264;24191;-43
2023/05/24 04:27:00;;;;;;;4.00;3.30;;;24.10;65.50;;;;;;221607;1256;22537;-40
2023/05/24 04:32:05;;;;;;;3.20;3.00;;;24.10;65.50;;;;;;221942;1265;25230;-42
2023/05/24 04:37:09;;;;;;;3.70;3.30;;;24.10;65.50;;;;;;221856;1256;25275;-41
2023/05/24 04:42:14;;;;;;;3.60;3.30;;;24.10;65.30;;;;;;221779;1259;22546;-43
2023/05/24 04:47:19;;;;;;;3.20;2.90;;;24.10;65.30;;;;;;221832;1257;22525;-45
2023/05/24 04:52:24;;;;;;;3.00;2.80;;;24.10;65.60;;;;;;221872;1253;22510;-44
2023/05/24 04:57:28;;;;;;;3.30;3.00;;;24.00;65.70;;;;;;221585;1261;22550;-40
2023/05/24 05:02:32;;;;;;;2.80;2.60;;;24.10;65.40;;;;;;221701;1265;22516;-42
2023/05/24 05:07:37;;;;;;;3.20;2.90;;;24.10;65.20;;;;;;221475;1263;24232;-42
2023/05/24 05:12:41;;;;;;;2.90;2.70;;;24.00;65.20;;;;;;221484;1257;24190;-40
2023/05/24 05:17:45;;;;;;;3.50;3.20;;;24.00;65.20;;;;;;221735;1256;22774;-42
2023/05/24 05:22:49;;;;;;;3.80;2.80;;;24.00;65.20;;;;;;221747;1264;24242;-41
2023/05/24 05:27:53;;;;;;;2.50;2.40;;;24.00;65.20;;;;;;222083;1270;24247;-42
2023/05/24 05:32:58;;;;;;;2.60;2.50;;;24.00;65.10;;;;;;221624;1266;22516;-44
2023/05/24 05:38:02;;;;;;;2.70;2.50;;;24.00;65.10;;;;;;221774;1259;22535;-42
2023/05/24 05:43:09;;;;;;;2.90;2.60;;;24.00;65.00;;;;;;221792;1265;22513;-49
2023/05/24 05:48:14;;;;;;;3.00;2.70;;;24.00;65.10;;;;;;221678;1250;24315;-52
2023/05/24 05:53:18;;;;;;;5.80;2.90;;;23.90;65.30;;;;;;221451;1263;23116;-49
2023/05/24 05:58:22;;;;;;;3.20;2.90;;;24.00;65.20;;;;;;221684;1266;22660;-48
2023/05/24 06:03:26;;;;;;;3.50;2.70;;;24.00;65.30;;;;;;221767;1257;22627;-54
2023/05/24 06:08:33;;;;;;;5.70;2.60;;;24.00;65.40;;;;;;221648;1271;24219;-49
2023/05/24 06:13:38;;;;;;;7.00;2.80;;;24.00;64.90;;;;;;221589;1266;22787;-51
2023/05/24 06:18:42;;;;;;;3.90;3.00;;;24.00;64.90;;;;;;221584;1262;22651;-51
2023/05/24 06:24:04;;;;;;;3.00;2.80;;;24.10;64.90;;;;;;221823;1264;22528;-52
2023/05/24 06:29:08;;;;;;;2.30;2.10;;;24.10;64.70;;;;;;221711;1263;22768;-52
2023/05/24 06:34:16;;;;;;;3.30;2.80;;;24.10;65.00;;;;;;221616;1263;23887;-53
2023/05/24 06:39:20;;;;;;;4.60;2.70;;;24.10;64.70;;;;;;221548;1264;24212;-50
2023/05/24 06:44:32;;;;;;;5.70;2.50;;;24.20;64.90;;;;;;221707;1266;22511;-49
2023/05/24 06:49:36;;;;;;;;;;;24.10;64.80;;;;;;221446;1268;24246;-50
2023/05/24 06:54:41;;;;;;;4.60;3.00;;;24.30;64.60;;;;;;221842;1266;25389;-48
2023/05/24 06:59:45;;;;;;;9.80;3.20;;;24.40;64.20;;;;;;221776;1262;22752;-46
2023/05/24 07:04:49;;;;;;;3.40;2.30;;;24.20;64.40;;;;;;229442;1271;22134;-46
2023/05/24 07:09:53;;;;;;;4.10;2.20;;;24.30;63.70;;;;;;229371;1268;22152;-43
2023/05/24 07:14:57;;;;;;;6.70;2.40;;;24.50;63.00;;;;;;224011;1269;22626;-45
2023/05/24 07:20:01;;;;;;;6.00;2.50;;;24.70;62.60;;;;;;222341;1266;22537;-44
2023/05/24 07:25:06;;;;;;;3.80;2.30;;;24.50;62.80;;;;;;221615;1259;24337;-43
2023/05/24 07:30:11;;;;;;;5.60;2.60;;;24.40;63.00;;;;;;221640;1270;24254;-45
2023/05/24 07:35:33;;;;;;;3.70;2.20;;;24.30;63.60;;;;;;221508;1265;22536;-43
2023/05/24 07:40:38;;;;;;;5.50;2.70;;;24.40;63.40;;;;;;221363;1256;22564;-44
2023/05/24 07:45:42;;;;;;;5.10;2.20;;;24.40;63.50;;;;;;221508;1270;22772;-44
2023/05/24 07:50:49;;;;;;;3.30;2.60;;;24.30;64.10;;;;;;221307;1257;24251;-45
2023/05/24 07:55:53;;;;;;;5.00;2.40;;;24.30;63.30;;;;;;221743;1271;25323;-44
2023/05/24 08:00:56;;;;;;;5.00;2.70;;;24.40;63.20;;;;;;221629;1257;22572;-43
2023/05/24 08:06:01;;;;;;;12.40;2.80;;;24.40;63.50;;;;;;221672;1261;22517;-43
2023/05/24 08:11:06;;;;;;;8.00;2.60;;;24.40;63.50;;;;;;221635;1264;23227;-47
2023/05/24 08:16:10;;;;;;;4.60;2.10;;;24.10;64.30;;;;;;221951;1265;24093;-46
2023/05/24 08:21:15;;;;;;;3.70;2.50;;;24.00;64.90;;;;;;221556;1256;22544;-46
2023/05/24 08:26:19;;;;;;;6.50;2.50;;;24.00;65.60;;;;;;221454;1257;24228;-43
2023/05/24 08:31:23;;;;;;;6.20;2.50;;;24.00;65.30;;;;;;221996;1261;23062;-43
2023/05/24 08:36:28;;;;;;;3.80;2.40;;;24.00;64.90;;;;;;221194;1269;22511;-44
2023/05/24 08:41:36;;;;;;;5.10;2.20;;;24.10;64.70;;;;;;221488;1263;22521;-44
2023/05/24 08:46:40;;;;;;;5.00;2.50;;;24.10;65.00;;;;;;221436;1260;22549;-44
2023/05/24 08:51:45;;;;;;;7.50;2.80;;;24.10;64.30;;;;;;221627;1266;25316;-44
2023/05/24 08:56:50;;;;;;;6.80;2.70;;;24.20;63.90;;;;;;221414;1266;22587;-44
2023/05/24 09:01:56;;;;;;;3.20;2.10;;;24.30;64.20;;;;;;221480;1266;25377;-51
2023/05/24 09:07:01;;;;;;;5.10;2.40;;;24.20;64.10;;;;;;221195;1265;22672;-45
2023/05/24 09:12:07;;;;;;;3.80;2.30;;;24.20;63.90;;;;;;221500;1260;22519;-44
2023/05/24 09:17:15;;;;;;;3.70;2.20;;;24.20;63.90;;;;;;221430;1259;27721;-44
2023/05/24 09:22:24;;;;;;;4.30;2.00;;;24.20;64.00;;;;;;221912;1259;24222;-46
2023/05/24 09:27:31;;;;;;;6.20;2.50;;;24.30;63.60;;;;;;221268;1265;22629;-44
2023/05/24 09:32:35;;;;;;;64.60;27.70;;;24.30;63.50;;;;;;221172;1257;24441;-46
2023/05/24 09:37:41;;;;;;;181.10;84.60;;;24.20;63.30;;;;;;221113;1262;22572;-43
2023/05/24 09:42:46;;;;;;;264.10;114.40;;;24.20;63.30;;;;;;221370;1259;25271;-45
2023/05/24 09:47:51;;;;;;;280.90;126.70;;;24.20;63.20;;;;;;221327;1264;25194;-46
2023/05/24 09:52:55;;;;;;;196.60;95.40;;;24.20;63.20;;;;;;222031;1265;23962;-45
2023/05/24 09:58:11;;;;;;;190.20;88.30;;;24.30;63.30;;;;;;221319;1268;25061;-44
2023/05/24 10:03:15;;;;;;;167.70;77.80;;;24.30;62.90;;;;;;221989;1256;22656;-44
2023/05/24 10:08:21;;;;;;;163.40;76.60;;;24.30;62.80;;;;;;221308;1260;25337;-45
2023/05/24 10:13:26;;;;;;;155.40;73.30;;;24.30;62.40;;;;;;221488;1266;24074;-43
2023/05/24 10:18:30;;;;;;;141.40;67.70;;;24.50;63.30;;;;;;221517;1257;24216;-44
2023/05/24 10:23:38;;;;;;;140.50;66.00;;;24.60;62.50;;;;;;221862;1270;24259;-45
2023/05/24 10:28:51;;;;;;;128.10;59.70;;;24.60;62.50;;;;;;221765;1263;22539;-45
2023/05/24 10:33:59;;;;;;;129.30;60.30;;;24.50;63.00;;;;;;221792;1260;22519;-42
2023/05/24 10:39:11;;;;;;;116.50;56.00;;;24.60;62.60;;;;;;221966;1264;24196;-43
2023/05/24 10:44:19;;;;;;;114.30;55.10;;;24.60;62.90;;;;;;221653;1265;25749;-42
2023/05/24 10:49:23;;;;;;;109.10;52.60;;;24.50;62.70;;;;;;221830;1259;25264;-42
2023/05/24 10:54:27;;;;;;;89.80;45.40;;;24.50;63.30;;;;;;221715;1260;25352;-41
2023/05/24 10:59:38;;;;;;;96.20;44.30;;;24.50;63.40;;;;;;221401;1267;24182;-42
2023/05/24 11:04:45;;;;;;;84.50;41.90;;;24.40;63.30;;;;;;221728;1267;22694;-43
2023/05/24 11:09:56;;;;;;;75.00;39.40;;;24.50;64.40;;;;;;221538;1271;22511;-42
2023/05/24 11:15:02;;;;;;;69.20;37.20;;;24.40;63.80;;;;;;222076;1266;25227;-44
2023/05/24 11:20:08;;;;;;;71.20;36.90;;;24.40;63.90;;;;;;221761;1270;24219;-45
2023/05/24 11:25:12;;;;;;;64.70;32.90;;;24.40;64.00;;;;;;221900;1265;25361;-44
2023/05/24 11:30:17;;;;;;;58.40;31.00;;;24.40;64.40;;;;;;221897;1266;24182;-45
2023/05/24 11:35:24;;;;;;;65.40;31.30;;;24.30;64.40;;;;;;221879;1267;24221;-48
2023/05/24 11:40:29;;;;;;;56.00;29.40;;;24.30;64.60;;;;;;221714;1263;23880;-47
2023/05/24 11:45:33;;;;;;;51.30;27.70;;;24.30;64.70;;;;;;221723;1264;22581;-44
2023/05/24 11:50:42;;;;;;;48.60;27.00;;;24.30;64.90;;;;;;221747;1265;22510;-44
2023/05/24 11:55:53;;;;;;;53.00;25.20;;;24.20;65.30;;;;;;221551;1264;22947;-46
2023/05/24 12:00:57;;;;;;;42.70;23.20;;;24.10;65.10;;;;;;221930;1258;22517;-45
2023/05/24 12:06:01;;;;;;;44.80;23.00;;;24.10;65.50;;;;;;221637;1260;25272;-42
2023/05/24 12:11:05;;;;;;;45.70;22.10;;;24.10;65.30;;;;;;221684;1265;22522;-47
2023/05/24 12:16:12;;;;;;;37.90;21.50;;;24.10;64.70;;;;;;221556;1249;24194;-43
2023/05/24 12:21:16;;;;;;;36.40;20.70;;;24.10;64.80;;;;;;221882;1258;22641;-46
2023/05/24 12:26:21;;;;;;;32.80;19.10;;;24.20;64.10;;;;;;221538;1264;22630;-44
2023/05/24 12:31:25;;;;;;;37.30;18.90;;;24.10;64.00;;;;;;221866;1263;22531;-48
2023/05/24 12:36:29;;;;;;;29.90;17.20;;;24.10;64.40;;;;;;221564;1264;22617;-45
2023/05/24 12:41:33;;;;;;;26.80;15.90;;;24.10;64.30;;;;;;221538;1270;22523;-48
2023/05/24 12:46:37;;;;;;;28.40;16.40;;;24.10;64.00;;;;;;221603;1270;25722;-45
2023/05/24 12:51:41;;;;;;;24.90;15.10;;;24.10;63.70;;;;;;221664;1267;22999;-45
2023/05/24 12:56:46;;;;;;;21.50;13.80;;;24.10;64.20;;;;;;221455;1271;22738;-46
2023/05/24 13:01:51;;;;;;;24.20;14.20;;;24.00;63.90;;;;;;221514;1262;22520;-47
2023/05/24 13:06:56;;;;;;;25.60;13.10;;;24.00;64.10;;;;;;221612;1270;22623;-46
2023/05/24 13:12:00;;;;;;;21.30;12.70;;;24.10;63.80;;;;;;221662;1267;22528;-47
2023/05/24 13:17:06;;;;;;;19.40;12.80;;;24.10;63.20;;;;;;221709;1267;24285;-45
2023/05/24 13:22:10;;;;;;;20.70;11.60;;;24.30;65.10;;;;;;221832;1258;24281;-45
2023/05/24 13:27:15;;;;;;;18.40;10.40;;;24.30;64.60;;;;;;221583;1270;22525;-48
2023/05/24 13:32:19;;;;;;;20.50;10.70;;;24.30;64.70;;;;;;221855;1266;24182;-44
2023/05/24 13:37:24;;;;;;;20.40;11.60;;;24.30;64.10;;;;;;221800;1264;22644;-43
2023/05/24 13:42:28;;;;;;;15.80;9.50;;;24.30;64.10;;;;;;221861;1264;24365;-45
2023/05/24 13:47:32;;;;;;;19.40;9.90;;;24.20;63.60;;;;;;221699;1264;22538;-44
2023/05/24 13:52:42;;;;;;;19.70;9.60;;;24.30;63.10;;;;;;221459;1267;22518;-43
2023/05/24 13:57:47;;;;;;;13.90;8.70;;;24.30;63.50;;;;;;221267;1260;24247;-45
2023/05/24 14:02:55;;;;;;;20.70;9.30;;;24.50;63.50;;;;;;221577;1272;22528;-41
2023/05/24 14:08:05;;;;;;;20.60;9.60;;;24.50;63.20;;;;;;221341;1261;24203;-44
2023/05/24 14:13:09;;;;;;;17.30;9.10;;;24.50;63.60;;;;;;221295;1252;230256;-42
2023/05/24 14:18:35;;;;;;;13.10;7.70;;;24.50;64.10;;;;;;221224;1269;22534;-42
2023/05/24 14:23:39;;;;;;;11.10;8.10;;;24.40;64.20;;;;;;221749;1257;25340;-43
2023/05/24 14:28:43;;;;;;;13.80;9.00;;;24.40;64.40;;;;;;221578;1267;22584;-44
2023/05/24 14:33:47;;;;;;;13.30;8.70;;;24.40;64.70;;;;;;221584;1266;22775;-48
2023/05/24 14:38:52;;;;;;;13.90;8.20;;;24.30;64.70;;;;;;221626;1267;22612;-54
2023/05/24 14:43:56;;;;;;;11.80;7.90;;;24.20;64.50;;;;;;221623;1257;24897;-53
2023/05/24 14:49:01;;;;;;;13.20;8.00;;;24.30;64.40;;;;;;221599;1264;24352;-51
2023/05/24 14:54:06;;;;;;;16.20;7.70;;;24.30;65.10;;;;;;221857;1264;25340;-49
2023/05/24 14:59:10;;;;;;;10.30;7.10;;;24.40;64.80;;;;;;221499;1264;22514;-55
2023/05/24 15:04:14;;;;;;;17.00;6.80;;;24.30;64.80;;;;;;222626;1263;22566;-55
2023/05/24 15:09:19;;;;;;;10.30;6.70;;;24.40;64.30;;;;;;221738;1266;24681;-57
2023/05/24 15:14:23;;;;;;;10.70;6.50;;;24.40;64.20;;;;;;221571;1257;22540;-54
2023/05/24 15:19:27;;;;;;;11.50;6.20;;;24.30;63.90;;;;;;221742;1251;22521;-55
2023/05/24 15:24:31;;;;;;;10.50;5.70;;;24.30;63.70;;;;;;221711;1262;23667;-54
2023/05/24 15:29:35;;;;;;;8.10;5.40;;;24.30;63.50;;;;;;221708;1263;25433;-57
2023/05/24 15:34:39;;;;;;;8.20;4.80;;;24.20;63.20;;;;;;221915;1247;24228;-60
2023/05/24 15:39:44;;;;;;;8.80;5.10;;;24.30;62.90;;;;;;221874;1256;22575;-58
2023/05/24 15:44:48;;;;;;;8.00;5.10;;;24.20;62.50;;;;;;221673;1256;22532;-52
2023/05/24 15:49:53;;;;;;;7.90;4.50;;;24.20;62.40;;;;;;221873;1259;24217;-54
2023/05/24 15:54:57;;;;;;;8.70;4.90;;;24.30;62.30;;;;;;221698;1264;22601;-55
2023/05/24 16:00:03;;;;;;;7.50;4.20;;;24.30;62.10;;;;;;221633;1263;22558;-59
2023/05/24 16:05:14;;;;;;;6.40;4.10;;;24.20;62.60;;;;;;221774;1257;22514;-59
2023/05/24 16:10:18;;;;;;;6.60;3.80;;;24.10;62.10;;;;;;221724;1267;22534;-55
2023/05/24 16:15:25;;;;;;;5.60;4.20;;;24.00;61.50;;;;;;221752;1263;22515;-57
2023/05/24 16:20:29;;;;;;;5.50;3.60;;;23.90;60.60;;;;;;221591;1266;22535;-55
2023/05/24 16:25:33;;;;;;;6.60;3.90;;;23.90;60.60;;;;;;221777;1267;22521;-54
2023/05/24 16:30:37;;;;;;;4.10;2.80;;;23.90;59.50;;;;;;221796;1256;22676;-54
2023/05/24 16:35:41;;;;;;;6.60;3.60;;;23.90;59.60;;;;;;221875;1266;24331;-55
2023/05/24 16:40:46;;;;;;;9.80;3.20;;;24.00;59.10;;;;;;221829;1270;24311;-56
2023/05/24 16:45:50;;;;;;;5.60;3.10;;;24.10;58.30;;;;;;221702;1260;25332;-56
2023/05/24 16:50:55;;;;;;;3.70;2.80;;;24.00;57.50;;;;;;221691;1259;24210;-56
2023/05/24 16:55:59;;;;;;;7.20;3.00;;;23.90;57.30;;;;;;221670;1257;24289;-57
2023/05/24 17:01:03;;;;;;;5.50;2.80;;;23.90;57.50;;;;;;221541;1268;22675;-49
2023/05/24 17:06:08;;;;;;;8.80;3.00;;;23.90;56.70;;;;;;221615;1262;22646;-51
2023/05/24 17:11:14;;;;;;;3.10;2.60;;;23.90;58.20;;;;;;221663;1259;22507;-52
2023/05/24 17:16:19;;;;;;;4.10;2.90;;;24.00;57.00;;;;;;221465;1259;22562;-53
2023/05/24 17:21:26;;;;;;;5.20;2.70;;;24.00;57.70;;;;;;221621;1264;22529;-49
2023/05/24 17:26:31;;;;;;;4.40;2.40;;;23.90;57.70;;;;;;221886;1259;24190;-49
2023/05/24 17:31:36;;;;;;;4.80;2.50;;;23.90;57.60;;;;;;221605;1262;22524;-56
2023/05/24 17:36:40;;;;;;;4.80;2.50;;;23.90;58.30;;;;;;221804;1265;23224;-49
2023/05/24 17:41:45;;;;;;;7.10;2.40;;;23.90;58.10;;;;;;221820;1265;22655;-50
2023/05/24 17:46:50;;;;;;;6.90;2.50;;;23.90;57.50;;;;;;221436;1252;26540;-50
2023/05/24 17:51:54;;;;;;;5.80;2.30;;;23.90;57.00;;;;;;221434;1265;22524;-51
2023/05/24 17:57:01;;;;;;;5.00;2.40;;;23.80;57.50;;;;;;221500;1257;22767;-52
2023/05/24 18:02:05;;;;;;;4.70;2.90;;;23.80;57.00;;;;;;221628;1266;22521;-50
2023/05/24 18:07:10;;;;;;;7.90;2.40;;;23.80;58.10;;;;;;221831;1269;25234;-51
2023/05/24 18:12:14;;;;;;;6.50;2.40;;;23.80;57.20;;;;;;221498;1260;24310;-51
2023/05/24 18:17:18;;;;;;;3.90;2.60;;;23.80;57.40;;;;;;221697;1259;22521;-53
2023/05/24 18:22:23;;;;;;;2.50;2.30;;;23.80;58.60;;;;;;221551;1266;22632;-48
2023/05/24 18:27:27;;;;;;;5.30;2.60;;;23.80;58.10;;;;;;221574;1265;22529;-50
2023/05/24 18:32:31;;;;;;;5.90;2.30;;;23.80;57.70;;;;;;221619;1259;22527;-52
2023/05/24 18:37:35;;;;;;;3.70;2.20;;;23.80;57.70;;;;;;221606;1262;22527;-49
2023/05/24 18:42:40;;;;;;;3.70;2.50;;;23.70;57.80;;;;;;221671;1265;23663;-49
2023/05/24 18:47:44;;;;;;;7.30;2.80;;;23.70;57.40;;;;;;221585;1259;22524;-50
2023/05/24 18:52:49;;;;;;;4.70;2.40;;;23.80;58.10;;;;;;221551;1259;23920;-49
2023/05/24 18:57:54;;;;;;;6.10;2.90;;;23.80;57.80;;;;;;221474;1257;22527;-54
2023/05/24 19:02:58;;;;;;;4.70;2.70;;;23.80;58.00;;;;;;221447;1265;24465;-49
2023/05/24 19:08:03;;;;;;;6.00;2.20;;;23.80;58.10;;;;;;221555;1250;23899;-51
2023/05/24 19:13:09;;;;;;;6.20;1.90;;;23.80;57.80;;;;;;221627;1259;22782;-50
2023/05/24 19:18:13;;;;;;;10.10;2.40;;;23.80;58.80;;;;;;221607;1261;22507;-52
2023/05/24 19:23:17;;;;;;;6.80;2.90;;;23.90;60.00;;;;;;221696;1260;22514;-53
2023/05/24 19:28:22;;;;;;;7.70;2.90;;;24.00;59.40;;;;;;221651;1265;24916;-54
2023/05/24 19:33:27;;;;;;;6.40;2.70;;;23.90;60.00;;;;;;221689;1265;22459;-54
2023/05/24 19:38:32;;;;;;;10.00;2.50;;;23.90;60.00;;;;;;221525;1259;22733;-54
2023/05/24 19:43:36;;;;;;;12.00;2.60;;;23.90;60.10;;;;;;221691;1265;26475;-54
2023/05/24 19:48:41;;;;;;;4.80;2.30;;;24.00;59.80;;;;;;221840;1265;22672;-55
2023/05/24 19:53:45;;;;;;;4.70;2.70;;;24.00;60.20;;;;;;221581;1259;22519;-52
2023/05/24 19:58:49;;;;;;;7.60;2.90;;;23.90;59.40;;;;;;221602;1261;22565;-54
2023/05/24 20:03:54;;;;;;;9.60;2.60;;;23.80;60.70;;;;;;221697;1257;22521;-53
2023/05/24 20:08:59;;;;;;;5.10;2.60;;;23.70;60.40;;;;;;221717;1259;22576;-55
2023/05/24 20:14:03;;;;;;;6.60;2.50;;;23.70;60.70;;;;;;221729;1256;22671;-52
2023/05/24 20:19:08;;;;;;;11.70;2.70;;;23.70;60.50;;;;;;221704;1263;25230;-52
2023/05/24 20:24:12;;;;;;;5.00;2.50;;;23.70;60.60;;;;;;221805;1257;24253;-50
2023/05/24 20:29:16;;;;;;;12.30;2.90;;;23.60;60.60;;;;;;221792;1257;22528;-53
2023/05/24 20:34:21;;;;;;;7.00;2.40;;;23.60;60.40;;;;;;221606;1262;24218;-51
2023/05/24 20:39:25;;;;;;;5.60;2.40;;;23.60;60.70;;;;;;221615;1263;24317;-52
2023/05/24 20:44:31;;;;;;;5.30;2.50;;;23.70;60.30;;;;;;221550;1257;22517;-53
2023/05/24 20:49:35;;;;;;;7.20;2.80;;;23.80;60.30;;;;;;221775;1265;24354;-52
2023/05/24 20:54:39;;;;;;;8.00;2.70;;;23.60;60.90;;;;;;221639;1265;22528;-53
2023/05/24 20:59:43;;;;;;;9.20;2.80;;;23.60;60.90;;;;;;221499;1265;25239;-52
2023/05/24 21:04:48;;;;;;;6.00;2.70;;;23.60;60.90;;;;;;221773;1250;24194;-51
2023/05/24 21:09:52;;;;;;;12.00;3.40;;;23.60;60.90;;;;;;221551;1256;22510;-53
2023/05/24 21:14:57;;;;;;;11.60;3.80;;;23.60;61.50;;;;;;222593;1250;22584;-44
2023/05/24 21:20:01;;;;;;;12.10;4.20;;;23.70;62.60;;;;;;221658;1265;22592;-42
2023/05/24 21:25:06;;;;;;;13.00;4.00;;;23.80;65.70;;;;;;221734;1256;22530;-49
2023/05/24 21:30:10;;;;;;;19.10;4.30;;;23.80;64.80;;;;;;221689;1259;22512;-43
2023/05/24 21:35:15;;;;;;;14.80;5.10;;;23.70;64.40;;;;;;221838;1256;22595;-44
2023/05/24 21:40:19;;;;;;;16.80;5.30;;;23.80;64.70;;;;;;221734;1265;24387;-44
2023/05/24 21:45:23;;;;;;;15.20;5.60;;;23.80;64.20;;;;;;221684;1256;25332;-44
2023/05/24 21:50:27;;;;;;;19.20;5.00;;;23.70;63.80;;;;;;221579;1256;22517;-44
2023/05/24 21:55:31;;;;;;;14.50;5.00;;;23.70;64.70;;;;;;221734;1263;26500;-42
2023/05/24 22:00:36;;;;;;;13.40;4.60;;;23.70;64.50;;;;;;221621;1258;22530;-45
2023/05/24 22:05:40;;;;;;;14.90;5.90;;;23.70;64.40;;;;;;221703;1256;22643;-46
2023/05/24 22:10:44;;;;;;;11.70;5.20;;;23.70;64.00;;;;;;221571;1262;24436;-46
2023/05/24 22:15:48;;;;;;;14.40;5.90;;;23.70;64.00;;;;;;221622;1271;24039;-45
2023/05/24 22:20:53;;;;;;;13.90;5.80;;;23.80;65.80;;;;;;221574;1259;25322;-46
2023/05/24 22:25:57;;;;;;;12.80;5.70;;;23.80;66.80;;;;;;221699;1257;23893;-50
2023/05/24 22:31:02;;;;;;;18.10;5.40;;;23.70;66.30;;;;;;221464;1264;22507;-44
2023/05/24 22:36:06;;;;;;;11.20;5.30;;;23.70;65.90;;;;;;221625;1265;22595;-44
2023/05/24 22:41:10;;;;;;;13.70;6.00;;;23.70;66.30;;;;;;221516;1259;24332;-44
2023/05/24 22:46:15;;;;;;;13.60;5.50;;;23.60;66.20;;;;;;221477;1259;22606;-44
2023/05/24 22:51:19;;;;;;;10.70;5.20;;;23.60;66.00;;;;;;221698;1249;24132;-44
2023/05/24 22:56:25;;;;;;;10.60;4.90;;;23.60;65.50;;;;;;221914;1258;24206;-42
2023/05/24 23:01:31;;;;;;;10.20;5.10;;;23.50;65.40;;;;;;221599;1265;24207;-47
2023/05/24 23:06:36;;;;;;;13.40;5.80;;;23.50;65.40;;;;;;221508;1256;24397;-45
2023/05/24 23:11:41;;;;;;;10.40;5.30;;;23.40;65.20;;;;;;221471;1266;22522;-46
2023/05/24 23:16:45;;;;;;;11.60;4.90;;;23.50;65.10;;;;;;221559;1266;25512;-46
2023/05/24 23:21:51;;;;;;;7.90;3.90;;;23.40;65.00;;;;;;221492;1257;23922;-47
2023/05/24 23:26:55;;;;;;;10.50;4.90;;;23.40;64.90;;;;;;221582;1257;22626;-43
2023/05/24 23:32:00;;;;;;;8.40;4.60;;;23.40;65.20;;;;;;221796;1259;22511;-48
2023/05/24 23:37:04;;;;;;;10.50;4.20;;;23.40;64.80;;;;;;221595;1259;22527;-44
2023/05/24 23:42:09;;;;;;;8.50;4.50;;;23.40;64.80;;;;;;221919;1263;22589;-44
2023/05/24 23:47:13;;;;;;;11.40;4.90;;;23.40;65.00;;;;;;221792;1263;24430;-46
2023/05/24 23:52:18;;;;;;;7.10;3.90;;;23.40;65.00;;;;;;221770;1268;22521;-45
2023/05/24 23:57:23;;;;;;;10.00;5.10;;;23.40;64.80;;;;;;221708;1264;22519;-42
